createdAt,value
2017-09-29T00:00:00.328Z,21.67
2017-09-29T00:02:28.571Z,21.27
2017-09-29T00:04:56.124Z,20.95
2017-09-29T00:07:23.681Z,20.90
2017-09-29T00:09:52.035Z,20.48
2017-09-29T00:12:19.582Z,19.30
2017-09-29T00:14:47.549Z,20.80
2017-09-29T00:17:15.107Z,20.52
2017-09-29T00:19:42.662Z,21.62
2017-09-29T00:22:10.255Z,21.55
2017-09-29T00:24:38.610Z,23.27
2017-09-29T00:27:06.166Z,21.12
2017-09-29T00:29:33.755Z,20.95
2017-09-29T00:32:01.631Z,19.60
2017-09-29T00:34:29.982Z,20.45
2017-09-29T00:36:57.578Z,22.10
2017-09-29T00:39:25.135Z,21.95
2017-09-29T00:41:53.491Z,22.50
2017-09-29T00:44:21.044Z,21.90
2017-09-29T00:46:48.599Z,21.33
2017-09-29T00:49:18.713Z,20.55
2017-09-29T00:51:46.268Z,17.85
2017-09-29T00:54:13.857Z,18.65
2017-09-29T00:56:41.406Z,20.50
2017-09-29T00:59:09.258Z,18.67
2017-09-29T01:01:37.221Z,19.85
2017-09-29T01:04:04.770Z,19.15
2017-09-29T01:06:32.317Z,18.30
2017-09-29T01:09:00.188Z,21.05
2017-09-29T01:11:31.264Z,22.00
2017-09-29T01:13:58.824Z,22.05
2017-09-29T01:16:26.419Z,22.13
2017-09-29T01:18:53.970Z,22.17
2017-09-29T01:21:22.326Z,21.52
2017-09-29T01:23:49.908Z,23.62
2017-09-29T01:26:18.223Z,32.63
2017-09-29T01:28:46.574Z,22.13
2017-09-29T01:31:14.173Z,23.87
2017-09-29T01:33:41.794Z,24.35
2017-09-29T01:36:09.347Z,27.73
2017-09-29T01:38:36.897Z,30.85
2017-09-29T01:41:04.496Z,30.67
2017-09-29T01:43:32.087Z,29.58
2017-09-29T01:45:59.641Z,26.05
2017-09-29T01:48:30.085Z,28.62
2017-09-29T01:50:57.629Z,33.20
2017-09-29T01:53:25.182Z,39.72
2017-09-29T01:55:53.530Z,35.95
2017-09-29T01:58:21.121Z,37.83
2017-09-29T02:00:48.666Z,25.88
2017-09-29T02:03:16.275Z,22.52
2017-09-29T02:05:43.822Z,29.30
2017-09-29T02:08:11.406Z,29.40
2017-09-29T02:10:38.997Z,31.05
2017-09-29T02:13:07.334Z,35.92
2017-09-29T02:15:34.889Z,36.47
2017-09-29T02:18:07.899Z,38.67
2017-09-29T02:20:35.437Z,39.65
2017-09-29T02:23:08.500Z,39.30
2017-09-29T02:25:36.107Z,32.08
2017-09-29T02:28:03.698Z,37.53
2017-09-29T02:30:31.270Z,35.13
2017-09-29T02:32:59.166Z,29.23
2017-09-29T02:35:26.713Z,32.55
2017-09-29T02:37:54.259Z,34.00
2017-09-29T02:40:22.121Z,31.33
2017-09-29T02:42:49.714Z,31.52
2017-09-29T02:45:17.275Z,33.22
2017-09-29T02:47:45.241Z,34.60
2017-09-29T02:50:12.784Z,33.90
2017-09-29T02:52:40.338Z,33.75
2017-09-29T02:55:08.117Z,36.72
2017-09-29T02:57:39.791Z,36.15
2017-09-29T03:00:07.857Z,40.42
2017-09-29T03:02:36.830Z,35.45
2017-09-29T03:05:06.375Z,33.97
2017-09-29T03:07:33.946Z,38.15
2017-09-29T03:10:02.298Z,37.22
2017-09-29T03:12:29.854Z,37.28
2017-09-29T03:14:57.920Z,40.50
2017-09-29T03:17:25.467Z,36.97
2017-09-29T03:19:53.013Z,39.63
2017-09-29T03:22:25.929Z,40.90
2017-09-29T03:24:53.854Z,41.72
2017-09-29T03:27:21.405Z,41.85
2017-09-29T03:29:49.757Z,48.45
2017-09-29T03:32:17.341Z,43.85
2017-09-29T03:34:45.721Z,42.78
2017-09-29T03:37:14.035Z,46.92
2017-09-29T03:39:41.585Z,44.58
2017-09-29T03:42:09.940Z,44.00
2017-09-29T03:44:38.252Z,47.15
2017-09-29T03:47:09.517Z,43.87
2017-09-29T03:49:37.067Z,48.65
2017-09-29T03:52:07.809Z,46.83
2017-09-29T03:54:36.488Z,43.20
2017-09-29T03:57:05.203Z,51.78
2017-09-29T03:59:32.858Z,44.65
2017-09-29T04:02:01.227Z,43.03
2017-09-29T04:04:28.780Z,43.17
2017-09-29T04:06:56.327Z,38.95
2017-09-29T04:09:23.969Z,44.92
2017-09-29T04:11:51.518Z,42.78
2017-09-29T04:14:19.427Z,40.83
2017-09-29T04:16:46.977Z,46.50
2017-09-29T04:19:14.527Z,46.42
2017-09-29T04:21:42.135Z,42.08
2017-09-29T04:24:10.072Z,40.20
2017-09-29T04:26:37.620Z,39.45
2017-09-29T04:29:05.179Z,36.80
2017-09-29T04:31:32.784Z,37.13
2017-09-29T04:34:04.374Z,41.45
2017-09-29T04:36:32.282Z,44.33
2017-09-29T04:38:59.829Z,44.42
2017-09-29T04:41:27.554Z,35.38
2017-09-29T04:43:55.610Z,46.53
2017-09-29T04:46:23.155Z,45.70
2017-09-29T04:48:50.702Z,50.67
2017-09-29T04:51:18.294Z,42.35
2017-09-29T04:53:46.647Z,48.00
2017-09-29T04:56:15.618Z,48.95
2017-09-29T04:58:43.203Z,48.80
2017-09-29T05:01:10.757Z,50.42
2017-09-29T05:03:38.622Z,46.85
2017-09-29T05:06:06.175Z,44.58
2017-09-29T05:08:33.770Z,41.80
2017-09-29T05:11:01.316Z,51.50
2017-09-29T05:13:28.902Z,58.45
2017-09-29T05:15:58.657Z,55.38
2017-09-29T05:18:26.204Z,48.87
2017-09-29T05:20:53.797Z,43.13
2017-09-29T05:23:21.344Z,42.22
2017-09-29T05:25:48.929Z,41.65
2017-09-29T05:28:16.473Z,45.15
2017-09-29T05:30:44.102Z,44.58
2017-09-29T05:33:11.656Z,41.10
2017-09-29T05:35:39.566Z,41.20
2017-09-29T05:38:07.113Z,46.05
2017-09-29T05:40:34.666Z,42.95
2017-09-29T05:43:02.271Z,45.55
2017-09-29T05:45:29.858Z,43.03
2017-09-29T05:47:57.400Z,38.42
2017-09-29T05:50:25.420Z,43.63
2017-09-29T05:52:53.169Z,43.30
2017-09-29T05:55:20.729Z,40.53
2017-09-29T05:57:48.396Z,38.53
2017-09-29T06:00:16.497Z,40.25
2017-09-29T06:02:44.186Z,34.17
2017-09-29T06:05:11.734Z,38.08
2017-09-29T06:07:39.721Z,38.30
2017-09-29T06:10:08.036Z,35.35
2017-09-29T06:12:35.597Z,35.22
2017-09-29T06:15:03.185Z,36.10
2017-09-29T06:17:30.783Z,35.65
2017-09-29T06:19:58.553Z,37.25
2017-09-29T06:22:26.873Z,33.50
2017-09-29T06:24:54.822Z,37.97
2017-09-29T06:27:23.613Z,37.35
2017-09-29T06:29:51.213Z,39.97
2017-09-29T06:32:18.789Z,39.20
2017-09-29T06:34:46.380Z,38.45
2017-09-29T06:37:13.935Z,36.15
2017-09-29T06:39:42.438Z,38.60
2017-09-29T06:42:10.016Z,33.33
2017-09-29T06:44:37.611Z,35.72
2017-09-29T06:47:05.168Z,40.70
2017-09-29T06:49:32.780Z,37.83
2017-09-29T06:52:00.339Z,43.15
2017-09-29T06:54:27.994Z,38.25
2017-09-29T06:56:55.549Z,34.03
2017-09-29T06:59:23.773Z,32.55
2017-09-29T07:01:51.328Z,31.98
2017-09-29T07:04:18.919Z,30.75
2017-09-29T07:06:46.498Z,31.27
2017-09-29T07:09:14.849Z,30.37
2017-09-29T07:11:42.402Z,28.95
2017-09-29T07:14:10.016Z,28.50
2017-09-29T07:16:37.562Z,30.77
2017-09-29T07:19:05.162Z,28.48
2017-09-29T07:21:32.936Z,25.17
2017-09-29T07:24:00.545Z,27.35
2017-09-29T07:26:31.157Z,25.77
2017-09-29T07:29:00.444Z,26.02
2017-09-29T07:31:30.215Z,28.10
2017-09-29T07:33:59.190Z,26.48
2017-09-29T07:36:29.598Z,24.90
2017-09-29T07:38:57.924Z,27.85
2017-09-29T07:41:25.464Z,25.35
2017-09-29T07:43:53.370Z,25.42
2017-09-29T07:46:20.948Z,24.15
2017-09-29T07:48:48.534Z,24.87
2017-09-29T07:51:16.893Z,23.30
2017-09-29T07:53:44.750Z,22.95
2017-09-29T07:56:12.305Z,22.27
2017-09-29T07:58:39.870Z,22.15
2017-09-29T08:01:07.790Z,21.45
2017-09-29T08:03:35.341Z,22.50
2017-09-29T08:06:03.148Z,22.45
2017-09-29T08:08:30.702Z,20.85
2017-09-29T08:10:58.287Z,21.52
2017-09-29T08:13:25.837Z,20.80
2017-09-29T08:15:53.496Z,20.27
2017-09-29T08:18:21.041Z,20.52
2017-09-29T08:20:48.774Z,19.95
2017-09-29T08:23:16.347Z,18.55
2017-09-29T08:25:44.345Z,18.02
2017-09-29T08:28:11.893Z,18.35
2017-09-29T08:30:39.462Z,18.17
2017-09-29T08:33:07.193Z,18.52
2017-09-29T08:35:34.963Z,16.23
2017-09-29T08:38:02.514Z,14.57
2017-09-29T08:40:30.121Z,13.80
2017-09-29T08:42:57.672Z,15.60
2017-09-29T08:45:25.302Z,13.85
2017-09-29T08:47:52.849Z,13.75
2017-09-29T08:50:20.644Z,14.50
2017-09-29T08:52:48.223Z,14.82
2017-09-29T08:55:15.822Z,13.60
2017-09-29T08:57:44.150Z,12.30
2017-09-29T09:00:11.802Z,12.95
2017-09-29T09:02:39.361Z,11.90
2017-09-29T09:05:07.357Z,11.57
2017-09-29T09:07:34.909Z,10.65
2017-09-29T09:10:02.462Z,11.50
2017-09-29T09:12:30.124Z,10.65
2017-09-29T09:14:58.229Z,11.03
2017-09-29T09:17:25.770Z,9.90
2017-09-29T09:19:53.342Z,10.15
2017-09-29T09:22:25.142Z,10.32
2017-09-29T09:24:52.673Z,11.27
2017-09-29T09:27:20.986Z,10.80
2017-09-29T09:29:48.569Z,11.00
2017-09-29T09:32:17.981Z,10.90
2017-09-29T09:34:45.527Z,11.00
2017-09-29T09:37:14.029Z,9.50
2017-09-29T09:39:41.574Z,12.30
2017-09-29T09:42:09.544Z,9.13
2017-09-29T09:44:37.105Z,9.30
2017-09-29T09:47:04.658Z,8.90
2017-09-29T09:49:32.239Z,9.23
2017-09-29T09:51:59.785Z,8.33
2017-09-29T09:54:27.412Z,8.97
2017-09-29T09:56:54.958Z,8.63
2017-09-29T09:59:23.456Z,9.00
2017-09-29T10:01:51.217Z,7.77
2017-09-29T10:04:19.529Z,7.63
2017-09-29T10:06:47.161Z,7.23
2017-09-29T10:09:14.706Z,7.30
2017-09-29T10:11:43.073Z,7.53
2017-09-29T10:14:10.614Z,7.67
2017-09-29T10:16:38.311Z,7.10
2017-09-29T10:19:05.860Z,11.20
2017-09-29T10:21:34.189Z,7.57
2017-09-29T10:24:01.857Z,6.50
2017-09-29T10:26:32.198Z,8.00
2017-09-29T10:28:59.734Z,9.30
2017-09-29T10:31:27.275Z,7.27
2017-09-29T10:33:54.969Z,9.20
2017-09-29T10:36:22.601Z,6.37
2017-09-29T10:38:50.303Z,7.33
2017-09-29T10:41:17.837Z,5.90
2017-09-29T10:43:45.417Z,6.70
2017-09-29T10:46:12.956Z,6.47
2017-09-29T10:48:40.529Z,6.10
2017-09-29T10:51:11.796Z,8.40
2017-09-29T10:53:39.357Z,5.83
2017-09-29T10:56:07.353Z,5.53
2017-09-29T10:58:35.656Z,5.60
2017-09-29T11:01:03.236Z,6.00
2017-09-29T11:03:30.773Z,7.83
2017-09-29T11:05:58.477Z,5.80
2017-09-29T11:08:26.029Z,7.47
2017-09-29T11:10:53.717Z,6.53
2017-09-29T11:13:21.264Z,7.43
2017-09-29T11:15:48.805Z,6.73
2017-09-29T11:18:19.464Z,5.20
2017-09-29T11:20:47.029Z,6.50
2017-09-29T11:23:14.586Z,5.00
2017-09-29T11:25:42.244Z,5.40
2017-09-29T11:28:09.841Z,5.97
2017-09-29T11:30:37.434Z,5.20
2017-09-29T11:33:05.737Z,4.80
2017-09-29T11:35:33.400Z,4.80
2017-09-29T11:38:01.095Z,5.70
2017-09-29T11:40:29.409Z,5.27
2017-09-29T11:42:57.726Z,5.60
2017-09-29T11:45:25.339Z,7.40
2017-09-29T11:47:52.877Z,5.20
2017-09-29T11:50:21.238Z,5.23
2017-09-29T11:52:48.783Z,5.93
2017-09-29T11:55:16.324Z,4.67
2017-09-29T11:57:44.117Z,5.20
2017-09-29T12:00:11.733Z,5.50
2017-09-29T12:02:39.721Z,5.57
2017-09-29T12:05:07.287Z,4.97
2017-09-29T12:07:34.848Z,5.30
2017-09-29T12:10:06.090Z,5.73
2017-09-29T12:12:33.751Z,7.30
2017-09-29T12:15:01.294Z,6.97
2017-09-29T12:17:28.889Z,7.03
2017-09-29T12:19:56.445Z,5.03
2017-09-29T12:22:24.041Z,5.43
2017-09-29T12:24:52.367Z,6.80
2017-09-29T12:27:20.071Z,4.43
2017-09-29T12:29:47.618Z,4.60
2017-09-29T12:32:15.674Z,7.87
2017-09-29T12:34:43.221Z,7.40
2017-09-29T12:37:10.777Z,5.60
2017-09-29T12:39:38.366Z,5.00
2017-09-29T12:42:06.034Z,4.67
2017-09-29T12:44:33.592Z,4.47
2017-09-29T12:47:01.136Z,4.33
2017-09-29T12:49:28.878Z,4.17
2017-09-29T12:51:56.469Z,6.73
2017-09-29T12:54:24.059Z,4.20
2017-09-29T12:56:52.445Z,4.10
2017-09-29T12:59:20.809Z,4.10
2017-09-29T13:01:48.409Z,3.50
2017-09-29T13:04:15.977Z,3.77
2017-09-29T13:06:43.728Z,4.47
2017-09-29T13:09:11.299Z,4.20
2017-09-29T13:11:39.198Z,3.93
2017-09-29T13:14:06.786Z,4.23
2017-09-29T13:16:34.393Z,4.40
2017-09-29T13:19:01.939Z,5.10
2017-09-29T13:21:29.561Z,5.00
2017-09-29T13:23:57.102Z,7.23
2017-09-29T13:26:24.830Z,5.67
2017-09-29T13:28:52.376Z,4.03
2017-09-29T13:31:20.025Z,4.47
2017-09-29T13:33:48.324Z,4.60
2017-09-29T13:36:17.561Z,5.30
2017-09-29T13:38:45.103Z,4.50
2017-09-29T13:41:12.659Z,4.60
2017-09-29T13:43:40.545Z,5.30
2017-09-29T13:46:08.090Z,4.33
2017-09-29T13:48:35.642Z,5.07
2017-09-29T13:51:03.638Z,4.70
2017-09-29T13:53:31.208Z,6.67
2017-09-29T13:55:58.756Z,4.47
2017-09-29T13:58:26.477Z,4.60
2017-09-29T14:00:54.499Z,4.43
2017-09-29T14:03:22.038Z,5.07
2017-09-29T14:05:49.585Z,5.63
2017-09-29T14:08:17.512Z,6.00
2017-09-29T14:10:45.053Z,4.70
2017-09-29T14:13:12.597Z,5.30
2017-09-29T14:15:40.177Z,4.60
2017-09-29T14:18:07.756Z,8.33
2017-09-29T14:20:36.081Z,4.73
2017-09-29T14:23:03.657Z,10.70
2017-09-29T14:25:31.235Z,5.77
2017-09-29T14:28:00.621Z,7.90
2017-09-29T14:30:28.166Z,5.87
2017-09-29T14:32:56.269Z,9.50
2017-09-29T14:35:24.114Z,6.50
2017-09-29T14:37:51.670Z,6.00
2017-09-29T14:40:19.213Z,6.90
2017-09-29T14:42:46.864Z,7.20
2017-09-29T14:45:18.064Z,6.40
2017-09-29T14:47:45.609Z,5.50
2017-09-29T14:50:13.472Z,5.27
2017-09-29T14:52:41.016Z,5.33
2017-09-29T14:55:08.557Z,5.67
2017-09-29T14:57:36.152Z,5.20
2017-09-29T15:00:03.718Z,6.60
2017-09-29T15:02:31.261Z,5.70
2017-09-29T15:04:59.347Z,5.40
2017-09-29T15:07:26.892Z,8.63
2017-09-29T15:09:54.737Z,5.73
2017-09-29T15:12:22.281Z,5.80
2017-09-29T15:14:50.584Z,5.17
2017-09-29T15:17:18.581Z,5.47
2017-09-29T15:19:46.129Z,5.13
2017-09-29T15:22:13.678Z,5.20
2017-09-29T15:24:41.328Z,5.20
2017-09-29T15:27:08.875Z,5.30
2017-09-29T15:29:36.464Z,5.27
2017-09-29T15:32:04.026Z,5.93
2017-09-29T15:34:31.718Z,7.23
2017-09-29T15:36:59.271Z,6.63
2017-09-29T15:39:26.866Z,5.33
2017-09-29T15:41:55.189Z,5.93
2017-09-29T15:44:22.793Z,5.57
2017-09-29T15:46:50.345Z,5.57
2017-09-29T15:49:21.572Z,5.53
2017-09-29T15:51:49.110Z,7.53
2017-09-29T15:54:16.688Z,6.40
2017-09-29T15:56:44.233Z,5.00
2017-09-29T15:59:11.814Z,5.60
2017-09-29T16:01:39.353Z,5.43
2017-09-29T16:04:06.929Z,6.40
2017-09-29T16:06:34.967Z,5.20
2017-09-29T16:09:02.613Z,5.07
2017-09-29T16:11:30.917Z,6.83
2017-09-29T16:13:59.053Z,5.40
2017-09-29T16:16:27.363Z,7.90
2017-09-29T16:18:54.913Z,5.50
2017-09-29T16:21:22.497Z,7.83
2017-09-29T16:23:50.073Z,6.30
2017-09-29T16:26:17.842Z,4.70
2017-09-29T16:28:45.473Z,5.77
2017-09-29T16:31:13.026Z,7.17
2017-09-29T16:33:40.613Z,8.50
2017-09-29T16:36:08.165Z,5.73
2017-09-29T16:38:35.813Z,5.80
2017-09-29T16:41:03.424Z,5.83
2017-09-29T16:43:31.779Z,8.30
2017-09-29T16:45:59.444Z,6.93
2017-09-29T16:48:26.989Z,5.90
2017-09-29T16:50:55.778Z,5.27
2017-09-29T16:53:23.370Z,5.60
2017-09-29T16:55:51.102Z,6.10
2017-09-29T16:58:18.708Z,5.97
2017-09-29T17:00:46.301Z,5.20
2017-09-29T17:03:14.061Z,5.80
2017-09-29T17:05:41.609Z,7.00
2017-09-29T17:08:09.934Z,5.83
2017-09-29T17:10:37.642Z,5.77
2017-09-29T17:13:06.292Z,5.90
2017-09-29T17:15:33.840Z,6.20
2017-09-29T17:18:01.377Z,5.97
2017-09-29T17:20:29.281Z,5.93
2017-09-29T17:22:56.828Z,7.10
2017-09-29T17:25:24.394Z,6.50
2017-09-29T17:27:51.996Z,6.53
2017-09-29T17:30:21.734Z,8.40
2017-09-29T17:32:49.348Z,6.30
2017-09-29T17:35:16.906Z,7.03
2017-09-29T17:37:44.712Z,9.97
2017-09-29T17:40:12.273Z,6.85
2017-09-29T17:42:41.218Z,6.83
2017-09-29T17:45:08.832Z,6.70
2017-09-29T17:47:36.466Z,7.17
2017-09-29T17:50:04.062Z,6.70
2017-09-29T17:52:31.742Z,6.47
2017-09-29T17:54:59.312Z,8.70
2017-09-29T17:57:27.305Z,7.37
2017-09-29T17:59:54.849Z,9.80
2017-09-29T18:02:22.498Z,7.60
2017-09-29T18:04:50.070Z,7.27
2017-09-29T18:07:21.558Z,6.90
2017-09-29T18:09:49.980Z,7.53
2017-09-29T18:12:17.553Z,7.47
2017-09-29T18:14:45.533Z,8.07
2017-09-29T18:17:13.100Z,8.70
2017-09-29T18:19:40.655Z,7.50
2017-09-29T18:22:12.260Z,7.43
2017-09-29T18:24:39.814Z,7.83
2017-09-29T18:27:08.265Z,7.33
2017-09-29T18:29:35.879Z,7.50
2017-09-29T18:32:05.362Z,9.17
2017-09-29T18:34:32.954Z,7.23
2017-09-29T18:37:00.545Z,7.13
2017-09-29T18:39:28.204Z,7.63
2017-09-29T18:41:56.392Z,7.60
2017-09-29T18:44:23.937Z,10.77
2017-09-29T18:46:52.344Z,9.37
2017-09-29T18:49:20.662Z,7.13
2017-09-29T18:51:48.217Z,9.67
2017-09-29T18:54:16.117Z,7.23
2017-09-29T18:56:43.665Z,9.67
2017-09-29T18:59:11.309Z,10.40
2017-09-29T19:01:38.865Z,8.10
2017-09-29T19:04:06.765Z,7.53
2017-09-29T19:06:34.306Z,10.17
2017-09-29T19:09:01.858Z,8.07
2017-09-29T19:11:29.631Z,8.10
2017-09-29T19:13:57.487Z,7.67
2017-09-29T19:16:25.029Z,9.23
2017-09-29T19:18:53.340Z,7.40
2017-09-29T19:21:21.194Z,8.03
2017-09-29T19:23:48.747Z,8.23
2017-09-29T19:26:16.299Z,7.30
2017-09-29T19:28:44.045Z,7.70
2017-09-29T19:31:11.653Z,7.30
2017-09-29T19:33:39.193Z,7.40
2017-09-29T19:36:06.765Z,7.50
2017-09-29T19:38:34.318Z,8.03
2017-09-29T19:41:01.901Z,7.43
2017-09-29T19:43:29.453Z,8.33
2017-09-29T19:45:57.950Z,8.70
2017-09-29T19:48:25.500Z,9.60
2017-09-29T19:50:53.082Z,7.17
2017-09-29T19:53:20.632Z,7.47
2017-09-29T19:55:48.294Z,8.90
2017-09-29T19:58:15.892Z,9.30
2017-09-29T20:00:43.541Z,8.33
2017-09-29T20:03:11.091Z,8.37
2017-09-29T20:05:38.945Z,8.00
2017-09-29T20:08:06.502Z,8.57
2017-09-29T20:10:34.137Z,8.00
2017-09-29T20:13:01.682Z,10.70
2017-09-29T20:15:29.539Z,8.30
2017-09-29T20:17:57.870Z,8.20
2017-09-29T20:20:25.429Z,8.07
2017-09-29T20:22:53.692Z,8.10
2017-09-29T20:25:21.285Z,7.70
2017-09-29T20:27:48.834Z,8.17
2017-09-29T20:30:16.425Z,7.40
2017-09-29T20:32:45.161Z,7.50
2017-09-29T20:35:13.150Z,7.70
2017-09-29T20:37:40.711Z,8.07
2017-09-29T20:40:08.853Z,10.03
2017-09-29T20:42:36.448Z,8.27
2017-09-29T20:45:03.982Z,8.00
2017-09-29T20:47:31.627Z,7.80
2017-09-29T20:49:59.208Z,7.70
2017-09-29T20:52:26.748Z,7.77
2017-09-29T20:54:54.750Z,8.93
2017-09-29T20:57:22.349Z,13.43
2017-09-29T20:59:50.663Z,8.40
2017-09-29T21:02:19.789Z,7.57
2017-09-29T21:04:47.334Z,7.70
2017-09-29T21:07:14.879Z,7.90
2017-09-29T21:09:42.881Z,9.00
2017-09-29T21:12:10.439Z,10.80
2017-09-29T21:14:37.990Z,7.90
2017-09-29T21:17:05.729Z,7.60
2017-09-29T21:19:33.320Z,7.60
2017-09-29T21:22:01.281Z,8.30
2017-09-29T21:24:28.817Z,7.50
2017-09-29T21:26:56.363Z,9.47
2017-09-29T21:29:23.958Z,7.63
2017-09-29T21:31:51.710Z,7.90
2017-09-29T21:34:19.373Z,8.10
2017-09-29T21:36:46.918Z,8.07
2017-09-29T21:39:14.499Z,8.53
2017-09-29T21:41:42.049Z,8.43
2017-09-29T21:44:09.945Z,8.23
2017-09-29T21:46:37.490Z,9.43
2017-09-29T21:49:05.050Z,9.00
2017-09-29T21:51:33.241Z,8.17
2017-09-29T21:54:00.790Z,9.90
2017-09-29T21:56:28.335Z,8.70
2017-09-29T21:58:55.930Z,9.90
2017-09-29T22:01:23.483Z,8.63
2017-09-29T22:03:51.078Z,8.70
2017-09-29T22:06:19.389Z,9.80
2017-09-29T22:08:48.782Z,8.27
2017-09-29T22:11:16.330Z,8.50
2017-09-29T22:13:44.652Z,8.70
2017-09-29T22:16:12.246Z,8.30
2017-09-29T22:18:39.789Z,7.70
2017-09-29T22:21:07.861Z,8.37
2017-09-29T22:23:35.404Z,7.97
2017-09-29T22:26:02.946Z,8.13
2017-09-29T22:28:30.529Z,8.40
2017-09-29T22:31:03.344Z,8.97
2017-09-29T22:33:30.889Z,16.47
2017-09-29T22:35:58.435Z,7.97
2017-09-29T22:38:26.026Z,7.90
2017-09-29T22:40:54.083Z,8.20
2017-09-29T22:43:21.634Z,8.57
2017-09-29T22:45:49.178Z,8.77
2017-09-29T22:48:16.763Z,8.43
2017-09-29T22:50:44.345Z,9.03
2017-09-29T22:53:12.771Z,10.13
2017-09-29T22:55:40.364Z,12.35
2017-09-29T22:58:08.081Z,8.60
2017-09-29T23:00:35.638Z,9.20
2017-09-29T23:03:03.233Z,9.80
2017-09-29T23:05:31.562Z,8.40
2017-09-29T23:07:59.119Z,8.80
2017-09-29T23:10:26.710Z,8.75
2017-09-29T23:12:54.279Z,10.88
2017-09-29T23:15:22.270Z,8.88
2017-09-29T23:17:49.822Z,8.70
2017-09-29T23:20:17.379Z,9.70
2017-09-29T23:22:44.981Z,10.90
2017-09-29T23:25:13.318Z,13.32
2017-09-29T23:27:40.913Z,13.33
2017-09-29T23:30:09.287Z,11.77
2017-09-29T23:32:37.197Z,13.20
2017-09-29T23:35:05.053Z,11.23
2017-09-29T23:37:32.621Z,10.40
2017-09-29T23:40:00.173Z,10.43
2017-09-29T23:42:27.763Z,10.40
2017-09-29T23:44:55.322Z,10.95
2017-09-29T23:47:23.313Z,10.10
2017-09-29T23:49:50.877Z,10.32
2017-09-29T23:52:18.430Z,11.60
2017-09-29T23:54:46.017Z,9.77
2017-09-29T23:57:14.352Z,9.90
2017-09-29T23:59:42.328Z,8.75
